Pagrindinis puslapis
METAR-TAF:

METAR-TAF

Oro uostai :

Joensū, Suomija

platuma: 62-40N, ilguma: 029-38E, Aukštis: 119 m

Dabartinis oras

Ataskaita buvo paskelbta 38 minutes, ne 23:20 UTC
Vėjas 6 kt iš Rytų/Pietryčių
Temperatūra 19°C
Drėgmė 68%
Slėgis 1016 hPa
Matomumas 10 km arba daugiau
nėra debesų žemiau 1500 m ir nėra kamuolinių lietaus debesų

METAR: EFJO 022320Z AUTO 12006KT CAVOK 19/13 Q1016

Laikas: 02:58 (23:58 UTC)

Prognozė

Ataskaita buvo paskelbta 12 valandos ir 13 minutes, ne 11:45 UTC
Prognozė galioja nuo 02 metu 12 UTC su 02 metu 15 UTC
Vėjas 6 kt iš Pietų
Matomumas 10 km arba daugiau
nėra debesų žemiau 1500 m ir nėra kamuolinių lietaus debesų
Tikimybė 30% :
Laikinai
nuo 02 metu 12 UTC su 02 metu 14 UTC
Mažai debesys ne aukštis 6500 ft, Liūtiniai kamuoliniai debesys.

TAF: EFJO 021145Z 0212/0215 18006KT CAVOK PROB30 TEMPO 0212/0214 FEW065CB

Orai ataskaitas ir orų prognozės (METAR, TAF).

turimą stotys yra geltonos ir raudonos taškus žemėlapyje.

Perkelti pele per norėdami pamatyti stoties vardą.

Tada spustelėkite, norėdami matyti oro stebėjimo ir prognozės.

Norėdami pakeisti žemėlapį: spustelėkite ant žalios mygtukų su juodo kryžiaus žemyn,; žalią mygtuką su brūkšneliu, jei norite nutolinti; arba žalių rodyklių gretimoms žemėlapius.


METAR-TAF: